Time;durP1;ratioP1;P1;durP2;ratioP2;P2;SDS_P1;SDS_P2;PMS_P1;PMS_P2;Temp;Humidity;BMP_temperature;BMP_pressure;BME280_temperature;BME280_humidity;BME280_pressure;Samples;Min_cycle;Max_cycle;Signal;HPM_P1;HPM_P2
2023/10/05 00:04:41;;;;;;;6.25;2.58;;;;;;;;;;5102877;28;20046;-64
2023/10/05 00:07:11;;;;;;;9.80;2.75;;;;;;;;;;5110399;28;20024;-64
2023/10/05 00:09:39;;;;;;;10.93;2.63;;;;;;;;;;5103932;28;20016;-65
2023/10/05 00:12:07;;;;;;;6.40;2.53;;;;;;;;;;5099393;28;20098;-64
2023/10/05 00:14:35;;;;;;;6.05;2.75;;;;;;;;;;5101022;28;20023;-65
2023/10/05 00:17:00;;;;;;;10.30;2.58;;;;;;;;;;5109893;28;20095;-64
2023/10/05 00:19:28;;;;;;;7.75;2.40;;;;;;;;;;5094954;28;20169;-64
2023/10/05 00:21:56;;;;;;;6.55;2.50;;;;;;;;;;5095039;28;20032;-64
2023/10/05 00:24:42;;;;;;;6.05;2.08;;;;;;;;;;5092995;28;20474;-64
2023/10/05 00:27:12;;;;;;;5.63;2.50;;;;;;;;;;5107111;28;20027;-64
2023/10/05 00:29:41;;;;;;;4.57;2.00;;;;;;;;;;5093710;28;20055;-64
2023/10/05 00:32:26;;;;;;;10.13;2.40;;;;;;;;;;5097755;28;20455;-64
2023/10/05 00:35:11;;;;;;;9.07;2.42;;;;;;;;;;5099976;28;20035;-65
2023/10/05 00:37:37;;;;;;;9.50;2.20;;;;;;;;;;5102564;28;20047;-64
2023/10/05 00:40:04;;;;;;;6.32;2.13;;;;;;;;;;5096775;28;20463;-65
2023/10/05 00:42:29;;;;;;;7.15;2.22;;;;;;;;;;5098387;28;20116;-63
2023/10/05 00:44:54;;;;;;;5.53;2.00;;;;;;;;;;5097433;28;20439;-65
2023/10/05 00:47:21;;;;;;;6.50;2.28;;;;;;;;;;5094072;28;20024;-63
2023/10/05 00:49:51;;;;;;;5.53;2.40;;;;;;;;;;5110437;28;20072;-63
2023/10/05 00:52:23;;;;;;;7.47;2.13;;;;;;;;;;5111970;28;20020;-63
2023/10/05 00:54:51;;;;;;;6.43;2.30;;;;;;;;;;5106700;28;20026;-63
2023/10/05 00:57:19;;;;;;;6.47;2.30;;;;;;;;;;5093858;28;20123;-63
2023/10/05 00:59:47;;;;;;;8.40;2.20;;;;;;;;;;5105559;28;20020;-64
2023/10/05 01:02:20;;;;;;;6.43;1.63;;;;;;;;;;5094038;28;20020;-63
2023/10/05 01:12:43;;;;;;;6.47;1.77;;;;;;;;;;5094297;28;20032;-64
2023/10/05 01:15:14;;;;;;;6.07;2.38;;;;;;;;;;5095811;28;20015;-63
2023/10/05 01:17:40;;;;;;;6.57;2.85;;;;;;;;;;5111988;28;20019;-63
2023/10/05 01:20:22;;;;;;;7.50;2.22;;;;;;;;;;5103904;28;20098;-63
2023/10/05 01:22:47;;;;;;;5.25;1.75;;;;;;;;;;5072063;28;20032;-64
2023/10/05 01:25:16;;;;;;;4.88;1.58;;;;;;;;;;5061162;28;20031;-64
2023/10/05 01:27:45;;;;;;;6.53;1.90;;;;;;;;;;5080349;28;20023;-65
2023/10/05 01:30:14;;;;;;;7.55;1.90;;;;;;;;;;5103215;28;20096;-64
2023/10/05 01:32:42;;;;;;;5.40;1.90;;;;;;;;;;5109888;28;20489;-65
2023/10/05 01:35:12;;;;;;;8.18;2.10;;;;;;;;;;5108861;28;20031;-65
2023/10/05 01:37:38;;;;;;;6.85;2.15;;;;;;;;;;5109595;28;20086;-65
2023/10/05 01:40:23;;;;;;;7.07;2.10;;;;;;;;;;5110997;28;20075;-63
2023/10/05 01:42:51;;;;;;;8.93;1.83;;;;;;;;;;5099371;28;20034;-63
2023/10/05 01:45:17;;;;;;;6.97;2.00;;;;;;;;;;5110461;28;20490;-64
2023/10/05 01:47:45;;;;;;;6.15;2.00;;;;;;;;;;5110773;28;20107;-64
2023/10/05 01:50:22;;;;;;;8.70;2.15;;;;;;;;;;5105410;28;20031;-64
2023/10/05 01:52:55;;;;;;;10.93;2.30;;;;;;;;;;5111635;28;20068;-64
2023/10/05 01:55:21;;;;;;;9.03;1.83;;;;;;;;;;5102705;28;20028;-64
2023/10/05 01:57:47;;;;;;;7.13;1.88;;;;;;;;;;5111414;28;20261;-64
2023/10/05 02:00:23;;;;;;;8.13;1.95;;;;;;;;;;5099092;28;20031;-64
2023/10/05 02:02:48;;;;;;;8.18;2.00;;;;;;;;;;5097926;28;20059;-64
2023/10/05 02:05:14;;;;;;;5.72;2.10;;;;;;;;;;5092329;28;20447;-64
2023/10/05 02:07:40;;;;;;;5.28;2.15;;;;;;;;;;5097195;28;20043;-64
2023/10/05 02:10:09;;;;;;;6.55;2.10;;;;;;;;;;5094156;28;20020;-65
2023/10/05 02:12:35;;;;;;;7.25;2.03;;;;;;;;;;5074633;28;20773;-64
2023/10/05 02:15:03;;;;;;;6.75;2.17;;;;;;;;;;5064469;28;20047;-64
2023/10/05 02:17:29;;;;;;;6.97;2.20;;;;;;;;;;5063864;28;20024;-64
2023/10/05 02:19:55;;;;;;;7.60;2.33;;;;;;;;;;5076967;28;20035;-64
2023/10/05 02:22:22;;;;;;;4.85;2.20;;;;;;;;;;5060088;28;20559;-64
2023/10/05 02:24:51;;;;;;;5.65;2.05;;;;;;;;;;5080619;28;20017;-63
2023/10/05 02:27:17;;;;;;;7.15;2.08;;;;;;;;;;5096496;28;20020;-63
2023/10/05 02:29:43;;;;;;;5.07;2.35;;;;;;;;;;5101396;28;20073;-63
2023/10/05 02:32:21;;;;;;;6.80;2.50;;;;;;;;;;5094423;28;20069;-64
2023/10/05 02:37:28;;;;;;;6.18;2.53;;;;;;;;;;5091350;28;20043;-64
2023/10/05 02:39:53;;;;;;;9.70;2.30;;;;;;;;;;5091906;28;20028;-64
2023/10/05 02:42:21;;;;;;;4.85;1.95;;;;;;;;;;5094171;28;20085;-64
2023/10/05 02:44:47;;;;;;;13.38;2.10;;;;;;;;;;5096123;28;20066;-65
2023/10/05 02:47:22;;;;;;;9.57;2.45;;;;;;;;;;5114526;28;20047;-64
2023/10/05 02:49:47;;;;;;;5.97;2.40;;;;;;;;;;5090233;28;20039;-64
2023/10/05 02:52:14;;;;;;;8.75;2.15;;;;;;;;;;5082286;28;20065;-64
2023/10/05 02:54:40;;;;;;;6.20;2.70;;;;;;;;;;5062550;28;20016;-64
2023/10/05 02:57:08;;;;;;;5.95;2.35;;;;;;;;;;5061244;28;20026;-64
2023/10/05 02:59:34;;;;;;;7.38;2.03;;;;;;;;;;5065579;28;20272;-64
2023/10/05 03:02:00;;;;;;;7.85;2.15;;;;;;;;;;5065662;28;20047;-64
2023/10/05 03:04:44;;;;;;;6.63;2.10;;;;;;;;;;5064138;28;20891;-64
2023/10/05 03:07:09;;;;;;;5.50;2.00;;;;;;;;;;5083516;28;20027;-63
2023/10/05 03:09:35;;;;;;;6.18;1.83;;;;;;;;;;5108738;28;20386;-63
2023/10/05 03:12:00;;;;;;;7.50;2.13;;;;;;;;;;5100848;28;20020;-64
2023/10/05 03:14:27;;;;;;;8.30;2.17;;;;;;;;;;5097709;28;20035;-63
2023/10/05 03:16:56;;;;;;;5.55;1.88;;;;;;;;;;5100731;28;20020;-63
2023/10/05 03:19:21;;;;;;;5.70;2.05;;;;;;;;;;5094031;28;20073;-63
2023/10/05 03:21:57;;;;;;;7.93;2.10;;;;;;;;;;5100524;28;20087;-64
2023/10/05 03:24:24;;;;;;;11.00;2.60;;;;;;;;;;5099158;28;20282;-63
2023/10/05 03:26:51;;;;;;;5.43;2.25;;;;;;;;;;5099438;28;20052;-64
2023/10/05 03:29:17;;;;;;;4.38;1.85;;;;;;;;;;5105778;28;20104;-64
2023/10/05 03:32:28;;;;;;;7.30;2.03;;;;;;;;;;5100144;28;20498;-64
2023/10/05 03:34:32;;;;;;;5.78;1.95;;;;;;;;;;5085429;28;20475;-64
2023/10/05 03:37:03;;;;;;;4.53;2.20;;;;;;;;;;5093793;28;20027;-64
2023/10/05 03:39:31;;;;;;;5.47;2.10;;;;;;;;;;5103519;28;20040;-64
2023/10/05 03:41:57;;;;;;;9.50;2.40;;;;;;;;;;5099497;28;20026;-64
2023/10/05 03:44:24;;;;;;;7.05;2.30;;;;;;;;;;5098833;28;20058;-65
2023/10/05 03:46:49;;;;;;;4.90;2.42;;;;;;;;;;5093937;28;20077;-64
2023/10/05 03:49:15;;;;;;;10.63;2.17;;;;;;;;;;5097860;28;20027;-64
2023/10/05 03:51:49;;;;;;;6.68;2.17;;;;;;;;;;5109003;28;20095;-63
2023/10/05 03:54:14;;;;;;;;;;;;;;;;;;5064041;28;20801;-64
2023/10/05 03:56:42;;;;;;;6.85;2.10;;;;;;;;;;5069503;28;20400;-64
2023/10/05 03:59:08;;;;;;;4.82;1.85;;;;;;;;;;5066094;28;20028;-64
2023/10/05 04:01:34;;;;;;;9.73;2.22;;;;;;;;;;5064528;28;20181;-64
2023/10/05 04:04:04;;;;;;;9.73;2.33;;;;;;;;;;5066777;28;20182;-64
2023/10/05 04:06:31;;;;;;;7.95;2.47;;;;;;;;;;5056862;28;20059;-64
2023/10/05 04:08:59;;;;;;;8.93;2.38;;;;;;;;;;5061008;28;20027;-63
2023/10/05 04:11:26;;;;;;;4.95;2.00;;;;;;;;;;5067023;28;20229;-64
2023/10/05 04:13:53;;;;;;;8.88;2.38;;;;;;;;;;5057616;28;20028;-63
2023/10/05 04:16:22;;;;;;;7.47;2.05;;;;;;;;;;5061814;28;20156;-63
2023/10/05 04:18:50;;;;;;;8.68;2.15;;;;;;;;;;5100971;28;20027;-63
2023/10/05 04:21:18;;;;;;;9.20;2.53;;;;;;;;;;5104065;28;20032;-63
2023/10/05 04:23:46;;;;;;;6.15;2.08;;;;;;;;;;5106330;28;20099;-64
2023/10/05 04:26:11;;;;;;;6.22;2.33;;;;;;;;;;5102981;28;20043;-63
2023/10/05 04:28:41;;;;;;;7.25;2.58;;;;;;;;;;5099069;28;20391;-64
2023/10/05 04:31:12;;;;;;;12.95;2.45;;;;;;;;;;5112810;28;20470;-63
2023/10/05 04:33:39;;;;;;;6.50;2.53;;;;;;;;;;5098674;28;20051;-63
2023/10/05 04:36:05;;;;;;;4.78;2.00;;;;;;;;;;5104533;28;20032;-63
2023/10/05 04:38:30;;;;;;;7.30;3.67;;;;;;;;;;5093956;28;20490;-64
2023/10/05 04:40:56;;;;;;;6.87;2.30;;;;;;;;;;5094057;28;20051;-65
2023/10/05 04:43:22;;;;;;;7.40;2.65;;;;;;;;;;5093118;28;21753;-64
2023/10/05 04:45:47;;;;;;;7.25;2.30;;;;;;;;;;5093452;28;20099;-64
2023/10/05 04:48:12;;;;;;;6.18;2.47;;;;;;;;;;5098399;28;20011;-64
2023/10/05 04:50:41;;;;;;;6.85;2.22;;;;;;;;;;5110213;28;20069;-64
2023/10/05 04:53:09;;;;;;;7.75;2.80;;;;;;;;;;5107253;28;20020;-64
2023/10/05 04:55:41;;;;;;;10.25;2.67;;;;;;;;;;5105276;28;20080;-64
2023/10/05 04:58:31;;;;;;;5.72;2.30;;;;;;;;;;5099718;28;20020;-64
2023/10/05 05:01:56;;;;;;;5.93;2.08;;;;;;;;;;5099077;28;20447;-64
2023/10/05 05:03:48;;;;;;;5.93;2.42;;;;;;;;;;5087496;28;20028;-64
2023/10/05 05:06:14;;;;;;;8.88;2.50;;;;;;;;;;5102767;28;20062;-64
2023/10/05 05:08:39;;;;;;;8.70;2.65;;;;;;;;;;5112403;28;20035;-64
2023/10/05 05:11:18;;;;;;;5.95;2.38;;;;;;;;;;5097067;28;20028;-64
2023/10/05 05:13:43;;;;;;;11.82;2.15;;;;;;;;;;5102173;28;20020;-64
2023/10/05 05:16:09;;;;;;;8.90;2.63;;;;;;;;;;5097767;28;20043;-64
2023/10/05 05:18:37;;;;;;;10.85;2.53;;;;;;;;;;5106016;28;20520;-64
2023/10/05 05:21:03;;;;;;;9.82;2.47;;;;;;;;;;5096972;28;20099;-64
2023/10/05 05:23:28;;;;;;;13.60;3.25;;;;;;;;;;5073998;28;20026;-64
2023/10/05 05:25:54;;;;;;;8.52;2.20;;;;;;;;;;5101650;28;20360;-64
2023/10/05 05:28:21;;;;;;;6.63;2.33;;;;;;;;;;5105143;28;20239;-64
2023/10/05 05:30:47;;;;;;;4.63;2.10;;;;;;;;;;5112292;28;20028;-65
2023/10/05 05:33:12;;;;;;;9.55;2.70;;;;;;;;;;5112036;28;20113;-64
2023/10/05 05:35:40;;;;;;;12.98;3.08;;;;;;;;;;5109721;28;20023;-64
2023/10/05 05:38:09;;;;;;;5.57;2.22;;;;;;;;;;5111964;28;20024;-64
2023/10/05 05:40:36;;;;;;;9.50;2.38;;;;;;;;;;5111461;28;20106;-64
2023/10/05 05:43:07;;;;;;;12.98;3.03;;;;;;;;;;5111563;28;20031;-64
2023/10/05 05:45:32;;;;;;;6.63;2.33;;;;;;;;;;5111344;28;20020;-64
2023/10/05 05:47:57;;;;;;;8.02;2.50;;;;;;;;;;5102838;28;20354;-65
2023/10/05 05:50:23;;;;;;;9.07;2.70;;;;;;;;;;5107313;28;20163;-64
2023/10/05 05:52:49;;;;;;;7.15;2.55;;;;;;;;;;5107324;28;20363;-65
2023/10/05 05:55:20;;;;;;;8.38;2.40;;;;;;;;;;5107822;28;20066;-65
2023/10/05 05:57:46;;;;;;;7.65;2.88;;;;;;;;;;5110161;28;20024;-65
2023/10/05 06:00:12;;;;;;;9.38;2.63;;;;;;;;;;5111217;28;20035;-65
2023/10/05 06:02:40;;;;;;;7.32;2.83;;;;;;;;;;5069817;28;20839;-65
2023/10/05 06:05:15;;;;;;;14.27;3.13;;;;;;;;;;5091959;28;20016;-65
2023/10/05 06:07:43;;;;;;;5.45;2.33;;;;;;;;;;5099992;28;20125;-65
2023/10/05 06:10:12;;;;;;;5.20;2.53;;;;;;;;;;5064576;28;21007;-65
2023/10/05 06:12:41;;;;;;;7.53;2.88;;;;;;;;;;5064456;28;20020;-65
2023/10/05 06:15:07;;;;;;;6.68;2.33;;;;;;;;;;5059081;28;20030;-65
2023/10/05 06:17:38;;;;;;;7.30;2.85;;;;;;;;;;5068143;28;20071;-65
2023/10/05 06:20:07;;;;;;;12.88;2.78;;;;;;;;;;5089572;28;20039;-64
2023/10/05 06:22:33;;;;;;;7.25;2.35;;;;;;;;;;5085614;28;20115;-65
2023/10/05 06:24:58;;;;;;;13.75;3.08;;;;;;;;;;5097992;28;20103;-65
2023/10/05 06:27:23;;;;;;;6.60;2.30;;;;;;;;;;5099985;28;20055;-65
2023/10/05 06:29:49;;;;;;;10.10;2.70;;;;;;;;;;5112724;28;20016;-64
2023/10/05 06:32:14;;;;;;;6.60;2.72;;;;;;;;;;5096912;28;20029;-65
2023/10/05 06:34:40;;;;;;;6.93;2.43;;;;;;;;;;5068434;28;20036;-65
2023/10/05 06:37:05;;;;;;;8.00;3.20;;;;;;;;;;5086155;28;20280;-65
2023/10/05 06:39:30;;;;;;;8.57;3.40;;;;;;;;;;5100751;28;20034;-64
2023/10/05 06:41:57;;;;;;;7.15;3.13;;;;;;;;;;5097404;28;20285;-65
2023/10/05 06:44:23;;;;;;;8.82;3.55;;;;;;;;;;5099536;28;20076;-64
2023/10/05 06:46:48;;;;;;;11.35;3.20;;;;;;;;;;5097144;28;20018;-64
2023/10/05 06:49:13;;;;;;;7.68;3.45;;;;;;;;;;5098401;28;20116;-65
2023/10/05 06:51:43;;;;;;;9.20;3.03;;;;;;;;;;5101797;28;20069;-64
2023/10/05 06:54:08;;;;;;;9.63;3.55;;;;;;;;;;5100952;28;20348;-64
2023/10/05 06:56:34;;;;;;;9.23;2.85;;;;;;;;;;5095390;28;20124;-64
2023/10/05 06:58:59;;;;;;;9.18;3.50;;;;;;;;;;5108358;28;20039;-64
2023/10/05 07:01:24;;;;;;;10.23;3.43;;;;;;;;;;5101270;28;20433;-64
2023/10/05 07:03:53;;;;;;;6.85;3.10;;;;;;;;;;5101581;28;20632;-65
2023/10/05 07:06:22;;;;;;;8.75;2.42;;;;;;;;;;5094850;28;20505;-64
2023/10/05 07:08:47;;;;;;;10.65;3.28;;;;;;;;;;5100067;28;20073;-64
2023/10/05 07:11:13;;;;;;;8.10;3.00;;;;;;;;;;5113573;28;20027;-65
2023/10/05 07:13:38;;;;;;;6.22;2.55;;;;;;;;;;5112357;28;20107;-65
2023/10/05 07:16:05;;;;;;;12.73;3.10;;;;;;;;;;5113888;28;20433;-64
2023/10/05 07:18:30;;;;;;;5.65;2.60;;;;;;;;;;5111491;28;20039;-64
2023/10/05 07:20:57;;;;;;;9.77;3.17;;;;;;;;;;5112533;28;20028;-64
2023/10/05 07:23:23;;;;;;;7.55;3.03;;;;;;;;;;5111644;28;20483;-64
2023/10/05 07:25:48;;;;;;;9.30;3.10;;;;;;;;;;5112813;28;20030;-64
2023/10/05 07:28:14;;;;;;;12.05;3.05;;;;;;;;;;5100103;28;20024;-64
2023/10/05 07:30:43;;;;;;;7.88;2.92;;;;;;;;;;5096248;28;20107;-64
2023/10/05 07:33:08;;;;;;;10.75;2.92;;;;;;;;;;5094765;28;20024;-64
2023/10/05 07:35:34;;;;;;;5.40;2.20;;;;;;;;;;5097916;28;20024;-64
2023/10/05 07:37:59;;;;;;;10.33;2.60;;;;;;;;;;5100952;28;20125;-64
2023/10/05 07:40:25;;;;;;;5.78;2.70;;;;;;;;;;5096540;28;20286;-64
2023/10/05 07:42:50;;;;;;;7.28;2.28;;;;;;;;;;5105604;28;20035;-64
2023/10/05 07:45:15;;;;;;;9.67;2.60;;;;;;;;;;5096385;28;20036;-64
2023/10/05 07:47:41;;;;;;;6.85;2.75;;;;;;;;;;5094799;28;20274;-64
2023/10/05 07:50:10;;;;;;;8.30;2.40;;;;;;;;;;5107314;28;20032;-64
2023/10/05 07:52:35;;;;;;;6.28;2.60;;;;;;;;;;5097116;28;20028;-64
2023/10/05 07:55:00;;;;;;;8.15;2.85;;;;;;;;;;5097059;28;20374;-64
2023/10/05 07:57:26;;;;;;;10.80;2.43;;;;;;;;;;5096068;28;20024;-65
2023/10/05 07:59:51;;;;;;;6.45;2.47;;;;;;;;;;5097858;28;20425;-64
2023/10/05 08:02:18;;;;;;;9.67;2.70;;;;;;;;;;5095924;28;20039;-64
2023/10/05 08:04:44;;;;;;;11.00;2.70;;;;;;;;;;5100408;28;20274;-64
2023/10/05 08:07:11;;;;;;;9.13;2.67;;;;;;;;;;5096854;28;20421;-64
2023/10/05 08:09:36;;;;;;;6.78;2.60;;;;;;;;;;5097388;28;20024;-64
2023/10/05 08:12:02;;;;;;;9.33;3.23;;;;;;;;;;5096449;28;20039;-64
2023/10/05 08:14:28;;;;;;;9.13;2.80;;;;;;;;;;5096830;28;20270;-64
2023/10/05 08:16:57;;;;;;;5.53;2.63;;;;;;;;;;5097504;28;20043;-64
2023/10/05 08:19:24;;;;;;;11.55;2.65;;;;;;;;;;5099783;28;20059;-64
2023/10/05 08:21:50;;;;;;;8.80;3.05;;;;;;;;;;5098139;28;20020;-64
2023/10/05 08:24:17;;;;;;;8.18;2.65;;;;;;;;;;5098942;28;20031;-64
2023/10/05 08:26:42;;;;;;;9.25;2.50;;;;;;;;;;5098204;28;20027;-64
2023/10/05 08:29:09;;;;;;;9.23;2.90;;;;;;;;;;5096688;28;20020;-64
2023/10/05 08:31:34;;;;;;;5.75;2.80;;;;;;;;;;5092558;28;20059;-64
2023/10/05 08:34:06;;;;;;;8.20;2.60;;;;;;;;;;5093426;28;20024;-64
2023/10/05 08:36:33;;;;;;;9.18;2.45;;;;;;;;;;5092935;28;20063;-64
2023/10/05 08:38:58;;;;;;;13.23;4.90;;;;;;;;;;5105851;28;20085;-64
2023/10/05 08:41:34;;;;;;;9.13;2.40;;;;;;;;;;5105808;28;20235;-64
2023/10/05 08:44:06;;;;;;;7.03;3.08;;;;;;;;;;5093657;28;20370;-64
2023/10/05 08:46:41;;;;;;;5.75;2.50;;;;;;;;;;5093864;28;20047;-64
2023/10/05 08:49:07;;;;;;;6.28;2.30;;;;;;;;;;5093101;28;20050;-64
2023/10/05 08:51:35;;;;;;;6.32;2.15;;;;;;;;;;5092748;28;20490;-64
2023/10/05 08:54:02;;;;;;;7.03;2.33;;;;;;;;;;5093134;28;20032;-64
2023/10/05 08:56:28;;;;;;;8.18;2.47;;;;;;;;;;5091483;28;20462;-64
2023/10/05 08:58:53;;;;;;;9.57;2.20;;;;;;;;;;5081499;28;20042;-64
2023/10/05 09:01:23;;;;;;;8.32;2.85;;;;;;;;;;5093552;28;20301;-64
2023/10/05 09:03:53;;;;;;;5.70;2.20;;;;;;;;;;5106193;28;20143;-64
2023/10/05 09:06:24;;;;;;;7.38;2.40;;;;;;;;;;5093858;28;20048;-64
2023/10/05 09:09:13;;;;;;;5.60;2.17;;;;;;;;;;5098231;28;20036;-64
2023/10/05 09:11:39;;;;;;;8.00;2.05;;;;;;;;;;5100311;28;20036;-64
2023/10/05 09:16:46;;;;;;;5.50;1.80;;;;;;;;;;5094892;28;20036;-64
2023/10/05 09:19:15;;;;;;;5.55;1.67;;;;;;;;;;5094281;28;20062;-64
2023/10/05 09:21:42;;;;;;;10.57;2.47;;;;;;;;;;5092549;28;20486;-64
2023/10/05 09:24:19;;;;;;;7.35;1.90;;;;;;;;;;5107270;28;20104;-64
2023/10/05 09:26:49;;;;;;;7.45;2.65;;;;;;;;;;5099558;28;20059;-64
2023/10/05 09:29:20;;;;;;;12.10;2.40;;;;;;;;;;5095945;28;20016;-64
2023/10/05 09:31:45;;;;;;;5.70;2.35;;;;;;;;;;5091438;28;20114;-64
2023/10/05 09:34:14;;;;;;;7.88;2.53;;;;;;;;;;5094802;28;20106;-64
2023/10/05 09:36:39;;;;;;;7.88;2.38;;;;;;;;;;5094283;28;20024;-64
2023/10/05 09:39:08;;;;;;;7.18;2.40;;;;;;;;;;5092822;28;20031;-64
2023/10/05 09:41:35;;;;;;;8.98;2.45;;;;;;;;;;5106271;28;20031;-63
2023/10/05 09:44:04;;;;;;;7.75;2.13;;;;;;;;;;5092483;28;20040;-64
2023/10/05 09:46:33;;;;;;;8.55;2.50;;;;;;;;;;5094072;28;20036;-64
2023/10/05 09:49:01;;;;;;;5.03;2.28;;;;;;;;;;5103356;28;20454;-64
2023/10/05 09:51:27;;;;;;;6.35;2.20;;;;;;;;;;5105610;28;20024;-64
2023/10/05 09:53:52;;;;;;;7.72;2.63;;;;;;;;;;5101957;28;20024;-64
2023/10/05 09:56:20;;;;;;;7.10;2.85;;;;;;;;;;5098634;28;20058;-64
2023/10/05 09:58:46;;;;;;;6.78;2.42;;;;;;;;;;5096153;28;20020;-64
2023/10/05 10:01:13;;;;;;;6.22;1.80;;;;;;;;;;5089455;28;20040;-64
2023/10/05 10:03:45;;;;;;;6.97;2.27;;;;;;;;;;5091076;28;20086;-64
2023/10/05 10:06:12;;;;;;;5.60;2.13;;;;;;;;;;5087476;28;20647;-64
2023/10/05 10:08:50;;;;;;;6.28;2.55;;;;;;;;;;5083068;28;20021;-64
2023/10/05 10:11:19;;;;;;;7.65;2.38;;;;;;;;;;5087523;28;20035;-64
2023/10/05 10:13:52;;;;;;;6.78;2.28;;;;;;;;;;5089011;28;20051;-64
2023/10/05 10:16:21;;;;;;;8.10;2.58;;;;;;;;;;5087649;28;20440;-64
2023/10/05 10:18:47;;;;;;;4.95;2.15;;;;;;;;;;5091098;28;20020;-64
2023/10/05 10:21:24;;;;;;;8.88;2.63;;;;;;;;;;5090471;28;20074;-64
2023/10/05 10:24:09;;;;;;;8.32;2.83;;;;;;;;;;5090299;28;20035;-64
2023/10/05 10:26:44;;;;;;;4.70;2.42;;;;;;;;;;5084240;28;20467;-64
2023/10/05 10:29:13;;;;;;;5.95;2.53;;;;;;;;;;5087241;28;20031;-64
2023/10/05 10:31:47;;;;;;;10.88;2.50;;;;;;;;;;5089885;28;20120;-63
2023/10/05 10:34:28;;;;;;;7.38;2.38;;;;;;;;;;5077579;28;20511;-63
2023/10/05 10:36:57;;;;;;;6.90;3.15;;;;;;;;;;5090973;28;21120;-63
2023/10/05 10:39:33;;;;;;;12.02;2.75;;;;;;;;;;5091186;28;20492;-63
2023/10/05 10:42:07;;;;;;;7.25;2.30;;;;;;;;;;5078432;28;20106;-64
2023/10/05 10:47:14;;;;;;;5.80;2.50;;;;;;;;;;5077569;28;20066;-64
2023/10/05 10:49:40;;;;;;;8.68;2.33;;;;;;;;;;5090844;28;20023;-64
2023/10/05 10:52:11;;;;;;;10.45;2.08;;;;;;;;;;5091381;28;20044;-63
2023/10/05 10:54:45;;;;;;;8.75;2.33;;;;;;;;;;5090178;28;20487;-64
2023/10/05 10:57:16;;;;;;;8.80;2.28;;;;;;;;;;5090917;28;20462;-64
2023/10/05 10:59:41;;;;;;;6.05;2.20;;;;;;;;;;5084442;28;20102;-64
2023/10/05 11:02:14;;;;;;;6.22;2.13;;;;;;;;;;5074076;28;20024;-65
2023/10/05 11:04:39;;;;;;;10.40;2.33;;;;;;;;;;5092397;28;20020;-63
2023/10/05 11:07:09;;;;;;;7.40;2.33;;;;;;;;;;5094008;28;20027;-64
2023/10/05 11:09:56;;;;;;;5.72;2.40;;;;;;;;;;5094118;28;20529;-63
2023/10/05 11:12:21;;;;;;;8.13;2.25;;;;;;;;;;5075985;28;20035;-63
2023/10/05 11:14:47;;;;;;;8.83;2.13;;;;;;;;;;5094253;28;20526;-63
2023/10/05 11:17:35;;;;;;;13.15;2.35;;;;;;;;;;5093993;28;20270;-63
2023/10/05 11:20:17;;;;;;;9.30;2.10;;;;;;;;;;5094072;28;20036;-63
2023/10/05 11:22:43;;;;;;;5.00;2.08;;;;;;;;;;5067620;28;20184;-63
2023/10/05 11:25:14;;;;;;;5.30;2.10;;;;;;;;;;5093332;28;20500;-63
2023/10/05 11:27:44;;;;;;;5.85;2.15;;;;;;;;;;5094210;28;20343;-65
2023/10/05 11:30:18;;;;;;;7.50;2.20;;;;;;;;;;5088995;28;20044;-64
2023/10/05 11:32:43;;;;;;;6.53;2.20;;;;;;;;;;5084951;28;20020;-64
2023/10/05 11:35:13;;;;;;;5.15;2.15;;;;;;;;;;5092170;28;20081;-64
2023/10/05 11:37:38;;;;;;;4.30;1.73;;;;;;;;;;5094412;28;20466;-64
2023/10/05 11:40:05;;;;;;;7.20;2.33;;;;;;;;;;5093082;28;20038;-64
2023/10/05 11:42:34;;;;;;;5.03;1.73;;;;;;;;;;5093736;28;20364;-64
2023/10/05 11:45:00;;;;;;;6.35;2.20;;;;;;;;;;5092968;28;20107;-65
2023/10/05 11:47:44;;;;;;;7.07;2.05;;;;;;;;;;5093353;28;20111;-64
2023/10/05 11:50:22;;;;;;;7.95;2.00;;;;;;;;;;5093918;28;20039;-64
2023/10/05 11:52:48;;;;;;;6.28;2.05;;;;;;;;;;5092762;28;20135;-64
2023/10/05 11:55:14;;;;;;;6.83;1.60;;;;;;;;;;5092833;28;20517;-64
2023/10/05 11:57:40;;;;;;;7.03;2.05;;;;;;;;;;5093405;28;20031;-64
2023/10/05 12:00:06;;;;;;;5.32;1.52;;;;;;;;;;5092333;28;20031;-64
2023/10/05 12:02:33;;;;;;;4.57;1.83;;;;;;;;;;5092448;28;20489;-64
2023/10/05 12:04:59;;;;;;;7.90;2.00;;;;;;;;;;5089416;28;20031;-64
2023/10/05 12:07:25;;;;;;;4.30;1.70;;;;;;;;;;5092829;28;20091;-64
2023/10/05 12:09:50;;;;;;;5.22;1.67;;;;;;;;;;5092032;28;20055;-64
2023/10/05 12:12:18;;;;;;;4.90;1.90;;;;;;;;;;5081491;28;20064;-64
2023/10/05 12:14:43;;;;;;;5.60;1.73;;;;;;;;;;5091096;28;20024;-64
2023/10/05 12:17:10;;;;;;;5.10;1.92;;;;;;;;;;5074082;28;20032;-64
2023/10/05 12:19:35;;;;;;;8.23;1.77;;;;;;;;;;5091681;28;20027;-65
2023/10/05 12:22:06;;;;;;;4.25;1.50;;;;;;;;;;5093277;28;20031;-64
2023/10/05 12:24:33;;;;;;;4.15;1.65;;;;;;;;;;5092317;28;20024;-65
2023/10/05 12:26:59;;;;;;;5.80;1.50;;;;;;;;;;5092200;28;20024;-64
2023/10/05 12:29:25;;;;;;;3.63;1.50;;;;;;;;;;5092616;28;20020;-64
2023/10/05 12:31:50;;;;;;;6.30;1.60;;;;;;;;;;5092919;28;20031;-64
2023/10/05 12:34:16;;;;;;;4.97;1.73;;;;;;;;;;5092545;28;20028;-64
2023/10/05 12:36:41;;;;;;;5.15;1.60;;;;;;;;;;5089748;28;20031;-64
2023/10/05 12:39:11;;;;;;;8.17;2.00;;;;;;;;;;5079853;28;20361;-64
2023/10/05 12:41:40;;;;;;;6.75;1.98;;;;;;;;;;5083549;28;20032;-64
2023/10/05 12:44:09;;;;;;;5.85;2.05;;;;;;;;;;5089554;28;20498;-64
2023/10/05 12:46:39;;;;;;;5.95;2.08;;;;;;;;;;5091742;28;20421;-64
2023/10/05 12:49:07;;;;;;;4.85;1.63;;;;;;;;;;5079295;28;20036;-64
2023/10/05 12:51:34;;;;;;;3.25;1.55;;;;;;;;;;5092441;28;20016;-64
2023/10/05 12:53:59;;;;;;;6.55;2.15;;;;;;;;;;5092633;28;20047;-64
2023/10/05 12:56:25;;;;;;;4.17;1.50;;;;;;;;;;5091618;28;20113;-64
2023/10/05 12:58:50;;;;;;;5.13;1.90;;;;;;;;;;5092366;28;20281;-66
2023/10/05 13:01:15;;;;;;;8.18;2.05;;;;;;;;;;5079392;28;20023;-67
2023/10/05 13:03:40;;;;;;;9.60;2.13;;;;;;;;;;5051853;28;20039;-64
2023/10/05 13:06:10;;;;;;;4.10;1.53;;;;;;;;;;5068408;28;20020;-65
2023/10/05 13:08:35;;;;;;;3.88;1.27;;;;;;;;;;5058354;28;20838;-65
2023/10/05 13:11:03;;;;;;;5.35;1.90;;;;;;;;;;5048375;28;20066;-66
2023/10/05 13:13:28;;;;;;;3.90;1.70;;;;;;;;;;5043579;28;20256;-65
2023/10/05 13:15:54;;;;;;;3.15;1.70;;;;;;;;;;5037218;28;20854;-64
2023/10/05 13:18:19;;;;;;;6.47;2.50;;;;;;;;;;5043030;28;20021;-64
2023/10/05 13:20:45;;;;;;;6.20;1.98;;;;;;;;;;5060497;28;20332;-64
2023/10/05 13:23:11;;;;;;;6.72;1.83;;;;;;;;;;5060008;28;20048;-64
2023/10/05 13:25:36;;;;;;;5.43;1.73;;;;;;;;;;5059966;28;20126;-65
2023/10/05 13:28:03;;;;;;;6.27;2.00;;;;;;;;;;5070396;28;20020;-64
2023/10/05 13:30:40;;;;;;;8.30;2.30;;;;;;;;;;5088403;28;20277;-64
2023/10/05 13:33:09;;;;;;;5.97;1.58;;;;;;;;;;5082813;28;20024;-65
2023/10/05 13:35:35;;;;;;;5.25;1.70;;;;;;;;;;5087922;28;20024;-64
2023/10/05 13:38:06;;;;;;;5.10;2.13;;;;;;;;;;5069313;28;20035;-65
2023/10/05 13:40:34;;;;;;;4.30;1.60;;;;;;;;;;5091718;28;20035;-64
2023/10/05 13:42:59;;;;;;;5.15;1.67;;;;;;;;;;5074588;28;20024;-64
2023/10/05 13:45:25;;;;;;;7.67;2.00;;;;;;;;;;5072120;28;20031;-64
2023/10/05 13:47:52;;;;;;;4.38;1.65;;;;;;;;;;5053758;28;20274;-65
2023/10/05 13:50:18;;;;;;;6.00;1.60;;;;;;;;;;5072723;28;20853;-64
2023/10/05 13:52:45;;;;;;;10.68;1.75;;;;;;;;;;5088234;28;20031;-64
2023/10/05 13:55:14;;;;;;;6.97;2.13;;;;;;;;;;5089701;28;20559;-64
2023/10/05 13:57:39;;;;;;;5.63;1.90;;;;;;;;;;5090338;28;20020;-63
2023/10/05 14:00:13;;;;;;;5.88;1.90;;;;;;;;;;5089164;28;20035;-65
2023/10/05 14:02:38;;;;;;;6.28;1.70;;;;;;;;;;5047343;28;20028;-65
2023/10/05 14:05:04;;;;;;;4.38;1.42;;;;;;;;;;5044351;28;20119;-64
2023/10/05 14:07:29;;;;;;;9.63;1.83;;;;;;;;;;5083939;28;20028;-64
2023/10/05 14:09:56;;;;;;;7.00;2.03;;;;;;;;;;5083577;28;20016;-63
2023/10/05 14:12:21;;;;;;;9.27;1.98;;;;;;;;;;5088392;28;20079;-65
2023/10/05 14:14:46;;;;;;;4.50;1.87;;;;;;;;;;5081616;28;20060;-67
2023/10/05 14:17:12;;;;;;;3.53;1.27;;;;;;;;;;5073328;28;20279;-64
2023/10/05 14:19:38;;;;;;;6.28;2.00;;;;;;;;;;5037953;28;20141;-64
2023/10/05 14:22:04;;;;;;;5.25;1.73;;;;;;;;;;5076761;28;20081;-64
2023/10/05 14:24:32;;;;;;;6.28;1.70;;;;;;;;;;5087738;28;20020;-62
2023/10/05 14:26:58;;;;;;;4.35;1.58;;;;;;;;;;5087930;28;20016;-64
2023/10/05 14:29:26;;;;;;;6.93;2.15;;;;;;;;;;5088224;28;20486;-64
2023/10/05 14:31:56;;;;;;;5.00;1.73;;;;;;;;;;5088499;28;20067;-64
2023/10/05 14:34:21;;;;;;;5.65;1.70;;;;;;;;;;5087491;28;20038;-64
2023/10/05 14:36:48;;;;;;;4.00;1.60;;;;;;;;;;5089895;28;20527;-64
2023/10/05 14:39:23;;;;;;;6.00;1.65;;;;;;;;;;5093721;28;20024;-64
2023/10/05 14:41:54;;;;;;;;;;;;;;;;;;5093259;28;20403;-64
2023/10/05 14:44:19;;;;;;;7.35;2.70;;;;;;;;;;5085210;28;19912;-64
2023/10/05 14:46:49;;;;;;;4.38;1.50;;;;;;;;;;5093125;28;20019;-64
2023/10/05 14:49:15;;;;;;;4.05;1.20;;;;;;;;;;5093984;28;20028;-64
2023/10/05 14:51:41;;;;;;;7.32;1.58;;;;;;;;;;5079674;28;20047;-64
2023/10/05 14:54:09;;;;;;;5.88;1.55;;;;;;;;;;5077112;28;20051;-64
2023/10/05 14:56:35;;;;;;;3.80;1.27;;;;;;;;;;5087698;28;20016;-64
2023/10/05 14:59:00;;;;;;;4.63;1.27;;;;;;;;;;5073027;28;21000;-64
2023/10/05 15:01:25;;;;;;;6.10;1.57;;;;;;;;;;5053463;28;20859;-64
2023/10/05 15:03:50;;;;;;;4.90;1.67;;;;;;;;;;5034581;28;20876;-64
2023/10/05 15:06:18;;;;;;;6.97;1.57;;;;;;;;;;5046423;28;20395;-64
2023/10/05 15:08:45;;;;;;;6.47;1.70;;;;;;;;;;5047723;28;20481;-64